sensor_id;sensor_type;location;lat;lon;timestamp;P1;durP1;ratioP1;P2;durP2;ratioP2
23242;SDS011;11790;49.578;11.214;2023-07-20T00:02:36;5.38;;;3.90;;
23242;SDS011;11790;49.578;11.214;2023-07-20T00:07:36;9.15;;;4.53;;
23242;SDS011;11790;49.578;11.214;2023-07-20T00:12:36;7.20;;;4.45;;
23242;SDS011;11790;49.578;11.214;2023-07-20T00:17:36;7.45;;;4.50;;
23242;SDS011;11790;49.578;11.214;2023-07-20T00:22:37;6.85;;;4.18;;
23242;SDS011;11790;49.578;11.214;2023-07-20T00:27:37;6.88;;;3.83;;
23242;SDS011;11790;49.578;11.214;2023-07-20T00:32:37;8.70;;;4.30;;
23242;SDS011;11790;49.578;11.214;2023-07-20T00:37:38;7.03;;;4.30;;
23242;SDS011;11790;49.578;11.214;2023-07-20T00:42:38;6.30;;;4.20;;
23242;SDS011;11790;49.578;11.214;2023-07-20T00:47:39;6.80;;;4.45;;
23242;SDS011;11790;49.578;11.214;2023-07-20T00:52:39;5.40;;;4.05;;
23242;SDS011;11790;49.578;11.214;2023-07-20T00:57:39;7.28;;;4.53;;
23242;SDS011;11790;49.578;11.214;2023-07-20T01:02:40;7.78;;;4.78;;
23242;SDS011;11790;49.578;11.214;2023-07-20T01:07:50;7.80;;;4.95;;
23242;SDS011;11790;49.578;11.214;2023-07-20T01:12:52;8.35;;;4.47;;
23242;SDS011;11790;49.578;11.214;2023-07-20T01:17:52;10.98;;;4.93;;
23242;SDS011;11790;49.578;11.214;2023-07-20T01:33:17;9.10;;;4.25;;
23242;SDS011;11790;49.578;11.214;2023-07-20T01:38:19;6.33;;;4.30;;
23242;SDS011;11790;49.578;11.214;2023-07-20T01:43:20;5.13;;;4.00;;
23242;SDS011;11790;49.578;11.214;2023-07-20T01:48:20;8.68;;;4.45;;
23242;SDS011;11790;49.578;11.214;2023-07-20T01:53:20;7.00;;;4.75;;
23242;SDS011;11790;49.578;11.214;2023-07-20T01:58:20;9.00;;;5.35;;
23242;SDS011;11790;49.578;11.214;2023-07-20T02:03:21;7.18;;;4.15;;
23242;SDS011;11790;49.578;11.214;2023-07-20T02:08:22;9.07;;;4.75;;
23242;SDS011;11790;49.578;11.214;2023-07-20T02:13:22;6.88;;;4.50;;
23242;SDS011;11790;49.578;11.214;2023-07-20T02:18:22;7.15;;;4.80;;
23242;SDS011;11790;49.578;11.214;2023-07-20T02:23:22;6.18;;;4.07;;
23242;SDS011;11790;49.578;11.214;2023-07-20T02:28:22;9.30;;;4.53;;
23242;SDS011;11790;49.578;11.214;2023-07-20T02:33:23;8.20;;;4.68;;
23242;SDS011;11790;49.578;11.214;2023-07-20T02:38:23;8.98;;;4.88;;
23242;SDS011;11790;49.578;11.214;2023-07-20T02:43:24;6.60;;;4.43;;
23242;SDS011;11790;49.578;11.214;2023-07-20T02:48:24;10.40;;;5.03;;
23242;SDS011;11790;49.578;11.214;2023-07-20T02:53:24;7.38;;;5.22;;
23242;SDS011;11790;49.578;11.214;2023-07-20T02:58:25;7.40;;;5.05;;
23242;SDS011;11790;49.578;11.214;2023-07-20T03:03:25;7.38;;;4.82;;
23242;SDS011;11790;49.578;11.214;2023-07-20T03:08:25;10.00;;;5.70;;
23242;SDS011;11790;49.578;11.214;2023-07-20T03:13:25;10.65;;;5.55;;
23242;SDS011;11790;49.578;11.214;2023-07-20T03:18:25;7.85;;;5.68;;
23242;SDS011;11790;49.578;11.214;2023-07-20T03:23:26;8.10;;;5.13;;
23242;SDS011;11790;49.578;11.214;2023-07-20T03:28:26;7.25;;;5.35;;
23242;SDS011;11790;49.578;11.214;2023-07-20T03:33:27;8.23;;;5.67;;
23242;SDS011;11790;49.578;11.214;2023-07-20T03:38:27;9.13;;;5.53;;
23242;SDS011;11790;49.578;11.214;2023-07-20T03:43:28;10.37;;;5.97;;
23242;SDS011;11790;49.578;11.214;2023-07-20T03:48:28;10.95;;;5.35;;
23242;SDS011;11790;49.578;11.214;2023-07-20T03:53:28;8.40;;;5.95;;
23242;SDS011;11790;49.578;11.214;2023-07-20T03:58:29;8.13;;;6.15;;
23242;SDS011;11790;49.578;11.214;2023-07-20T04:03:30;7.65;;;6.05;;
23242;SDS011;11790;49.578;11.214;2023-07-20T04:08:30;9.40;;;6.30;;
23242;SDS011;11790;49.578;11.214;2023-07-20T04:13:30;10.32;;;6.40;;
23242;SDS011;11790;49.578;11.214;2023-07-20T04:18:34;8.57;;;5.60;;
23242;SDS011;11790;49.578;11.214;2023-07-20T04:23:34;12.48;;;5.78;;
23242;SDS011;11790;49.578;11.214;2023-07-20T04:28:35;9.98;;;5.97;;
23242;SDS011;11790;49.578;11.214;2023-07-20T04:33:35;12.40;;;5.93;;
23242;SDS011;11790;49.578;11.214;2023-07-20T04:38:35;8.20;;;5.75;;
23242;SDS011;11790;49.578;11.214;2023-07-20T04:43:35;8.02;;;5.60;;
23242;SDS011;11790;49.578;11.214;2023-07-20T04:48:36;7.55;;;5.50;;
23242;SDS011;11790;49.578;11.214;2023-07-20T04:53:36;7.47;;;4.90;;
23242;SDS011;11790;49.578;11.214;2023-07-20T04:58:36;8.45;;;5.10;;
23242;SDS011;11790;49.578;11.214;2023-07-20T05:03:37;9.52;;;5.60;;
23242;SDS011;11790;49.578;11.214;2023-07-20T05:08:37;12.70;;;5.30;;
23242;SDS011;11790;49.578;11.214;2023-07-20T05:13:37;11.35;;;5.45;;
23242;SDS011;11790;49.578;11.214;2023-07-20T05:18:37;9.05;;;5.10;;
23242;SDS011;11790;49.578;11.214;2023-07-20T05:23:37;7.38;;;4.70;;
23242;SDS011;11790;49.578;11.214;2023-07-20T05:28:37;10.32;;;5.10;;
23242;SDS011;11790;49.578;11.214;2023-07-20T05:33:38;8.02;;;4.28;;
23242;SDS011;11790;49.578;11.214;2023-07-20T05:38:38;7.55;;;5.05;;
23242;SDS011;11790;49.578;11.214;2023-07-20T05:43:38;7.10;;;4.53;;
23242;SDS011;11790;49.578;11.214;2023-07-20T05:48:39;7.57;;;5.15;;
23242;SDS011;11790;49.578;11.214;2023-07-20T05:53:39;7.30;;;4.88;;
23242;SDS011;11790;49.578;11.214;2023-07-20T05:58:40;7.15;;;4.50;;
23242;SDS011;11790;49.578;11.214;2023-07-20T06:03:40;6.38;;;3.90;;
23242;SDS011;11790;49.578;11.214;2023-07-20T06:08:40;6.50;;;3.60;;
23242;SDS011;11790;49.578;11.214;2023-07-20T06:13:40;7.75;;;3.65;;
23242;SDS011;11790;49.578;11.214;2023-07-20T06:18:40;5.70;;;3.42;;
23242;SDS011;11790;49.578;11.214;2023-07-20T06:23:41;5.03;;;3.28;;
23242;SDS011;11790;49.578;11.214;2023-07-20T06:28:41;5.53;;;3.43;;
23242;SDS011;11790;49.578;11.214;2023-07-20T06:33:41;7.05;;;3.50;;
23242;SDS011;11790;49.578;11.214;2023-07-20T06:38:41;6.75;;;3.15;;
23242;SDS011;11790;49.578;11.214;2023-07-20T06:43:41;7.25;;;3.08;;
23242;SDS011;11790;49.578;11.214;2023-07-20T06:48:41;6.45;;;3.17;;
23242;SDS011;11790;49.578;11.214;2023-07-20T06:53:42;4.80;;;3.15;;
23242;SDS011;11790;49.578;11.214;2023-07-20T06:58:42;6.25;;;3.10;;
23242;SDS011;11790;49.578;11.214;2023-07-20T07:03:42;6.22;;;2.78;;
23242;SDS011;11790;49.578;11.214;2023-07-20T07:08:43;5.10;;;2.70;;
23242;SDS011;11790;49.578;11.214;2023-07-20T07:13:44;4.80;;;2.92;;
23242;SDS011;11790;49.578;11.214;2023-07-20T07:18:47;7.00;;;2.83;;
23242;SDS011;11790;49.578;11.214;2023-07-20T07:23:47;7.82;;;2.85;;
23242;SDS011;11790;49.578;11.214;2023-07-20T07:28:48;5.72;;;2.80;;
23242;SDS011;11790;49.578;11.214;2023-07-20T07:33:48;5.47;;;2.65;;
23242;SDS011;11790;49.578;11.214;2023-07-20T07:38:48;6.25;;;2.40;;
23242;SDS011;11790;49.578;11.214;2023-07-20T07:43:48;4.97;;;2.58;;
23242;SDS011;11790;49.578;11.214;2023-07-20T07:48:49;3.78;;;2.10;;
23242;SDS011;11790;49.578;11.214;2023-07-20T07:53:49;5.10;;;1.75;;
23242;SDS011;11790;49.578;11.214;2023-07-20T07:58:50;4.05;;;1.90;;
23242;SDS011;11790;49.578;11.214;2023-07-20T08:03:51;2.78;;;1.75;;
23242;SDS011;11790;49.578;11.214;2023-07-20T08:08:51;2.67;;;1.52;;
23242;SDS011;11790;49.578;11.214;2023-07-20T08:13:52;4.63;;;1.90;;
23242;SDS011;11790;49.578;11.214;2023-07-20T08:18:52;6.20;;;1.80;;
23242;SDS011;11790;49.578;11.214;2023-07-20T08:23:52;4.40;;;1.52;;
23242;SDS011;11790;49.578;11.214;2023-07-20T08:28:52;3.13;;;1.77;;
23242;SDS011;11790;49.578;11.214;2023-07-20T08:33:52;3.00;;;1.73;;
23242;SDS011;11790;49.578;11.214;2023-07-20T08:38:52;3.85;;;1.52;;
23242;SDS011;11790;49.578;11.214;2023-07-20T08:43:53;5.15;;;1.90;;
23242;SDS011;11790;49.578;11.214;2023-07-20T08:48:54;7.70;;;2.15;;
23242;SDS011;11790;49.578;11.214;2023-07-20T08:53:55;10.10;;;1.50;;
23242;SDS011;11790;49.578;11.214;2023-07-20T08:58:56;2.77;;;1.60;;
23242;SDS011;11790;49.578;11.214;2023-07-20T09:03:56;3.00;;;1.65;;
23242;SDS011;11790;49.578;11.214;2023-07-20T09:08:57;3.13;;;1.65;;
23242;SDS011;11790;49.578;11.214;2023-07-20T09:14:06;5.93;;;1.85;;
23242;SDS011;11790;49.578;11.214;2023-07-20T09:19:07;5.30;;;1.65;;
23242;SDS011;11790;49.578;11.214;2023-07-20T09:24:07;2.75;;;1.50;;
23242;SDS011;11790;49.578;11.214;2023-07-20T09:29:07;3.85;;;1.63;;
23242;SDS011;11790;49.578;11.214;2023-07-20T09:34:08;3.03;;;2.10;;
23242;SDS011;11790;49.578;11.214;2023-07-20T09:39:08;3.45;;;1.60;;
23242;SDS011;11790;49.578;11.214;2023-07-20T09:44:08;6.85;;;1.38;;
23242;SDS011;11790;49.578;11.214;2023-07-20T09:49:10;3.47;;;1.50;;
23242;SDS011;11790;49.578;11.214;2023-07-20T09:54:11;3.65;;;1.52;;
23242;SDS011;11790;49.578;11.214;2023-07-20T09:59:11;3.30;;;1.47;;
23242;SDS011;11790;49.578;11.214;2023-07-20T10:04:11;2.13;;;1.20;;
23242;SDS011;11790;49.578;11.214;2023-07-20T10:09:14;3.15;;;1.67;;
23242;SDS011;11790;49.578;11.214;2023-07-20T10:14:16;1.60;;;1.15;;
23242;SDS011;11790;49.578;11.214;2023-07-20T10:19:22;1.92;;;1.30;;
23242;SDS011;11790;49.578;11.214;2023-07-20T10:24:26;2.75;;;1.20;;
23242;SDS011;11790;49.578;11.214;2023-07-20T10:29:27;2.33;;;1.20;;
23242;SDS011;11790;49.578;11.214;2023-07-20T10:34:28;1.75;;;1.00;;
23242;SDS011;11790;49.578;11.214;2023-07-20T10:39:32;2.13;;;1.17;;
23242;SDS011;11790;49.578;11.214;2023-07-20T10:44:32;3.17;;;1.20;;
23242;SDS011;11790;49.578;11.214;2023-07-20T10:49:33;2.35;;;1.17;;
23242;SDS011;11790;49.578;11.214;2023-07-20T10:54:34;1.75;;;0.90;;
23242;SDS011;11790;49.578;11.214;2023-07-20T11:04:47;2.30;;;0.98;;
23242;SDS011;11790;49.578;11.214;2023-07-20T11:09:47;2.47;;;1.05;;
23242;SDS011;11790;49.578;11.214;2023-07-20T11:14:54;2.08;;;1.10;;
23242;SDS011;11790;49.578;11.214;2023-07-20T11:19:55;5.05;;;1.00;;
23242;SDS011;11790;49.578;11.214;2023-07-20T11:24:56;1.05;;;0.77;;
23242;SDS011;11790;49.578;11.214;2023-07-20T11:29:56;1.42;;;0.90;;
23242;SDS011;11790;49.578;11.214;2023-07-20T11:34:57;2.35;;;1.40;;
23242;SDS011;11790;49.578;11.214;2023-07-20T11:39:57;1.98;;;1.17;;
23242;SDS011;11790;49.578;11.214;2023-07-20T11:44:57;2.35;;;0.98;;
23242;SDS011;11790;49.578;11.214;2023-07-20T11:50:03;1.67;;;1.20;;
23242;SDS011;11790;49.578;11.214;2023-07-20T11:55:04;1.92;;;0.80;;
23242;SDS011;11790;49.578;11.214;2023-07-20T12:00:04;3.75;;;1.30;;
23242;SDS011;11790;49.578;11.214;2023-07-20T12:05:11;2.00;;;1.23;;
23242;SDS011;11790;49.578;11.214;2023-07-20T12:10:11;1.45;;;1.00;;
23242;SDS011;11790;49.578;11.214;2023-07-20T12:20:24;10.02;;;1.00;;
23242;SDS011;11790;49.578;11.214;2023-07-20T12:25:31;2.83;;;0.90;;
23242;SDS011;11790;49.578;11.214;2023-07-20T12:30:32;2.15;;;0.90;;
23242;SDS011;11790;49.578;11.214;2023-07-20T12:35:33;1.65;;;1.02;;
23242;SDS011;11790;49.578;11.214;2023-07-20T12:40:33;3.20;;;1.10;;
23242;SDS011;11790;49.578;11.214;2023-07-20T12:45:33;5.68;;;1.15;;
23242;SDS011;11790;49.578;11.214;2023-07-20T12:50:34;2.08;;;0.98;;
23242;SDS011;11790;49.578;11.214;2023-07-20T12:55:34;1.13;;;0.82;;
23242;SDS011;11790;49.578;11.214;2023-07-20T13:00:34;1.42;;;0.80;;
23242;SDS011;11790;49.578;11.214;2023-07-20T13:05:35;1.98;;;1.05;;
23242;SDS011;11790;49.578;11.214;2023-07-20T13:10:35;2.80;;;0.90;;
23242;SDS011;11790;49.578;11.214;2023-07-20T13:15:45;2.53;;;1.00;;
23242;SDS011;11790;49.578;11.214;2023-07-20T13:20:46;3.08;;;1.00;;
23242;SDS011;11790;49.578;11.214;2023-07-20T13:25:46;1.67;;;1.10;;
23242;SDS011;11790;49.578;11.214;2023-07-20T13:30:46;1.55;;;0.98;;
23242;SDS011;11790;49.578;11.214;2023-07-20T13:35:46;1.85;;;1.05;;
23242;SDS011;11790;49.578;11.214;2023-07-20T13:40:47;1.58;;;0.98;;
23242;SDS011;11790;49.578;11.214;2023-07-20T13:45:47;1.67;;;0.98;;
23242;SDS011;11790;49.578;11.214;2023-07-20T13:50:47;1.80;;;1.10;;
23242;SDS011;11790;49.578;11.214;2023-07-20T13:55:47;5.22;;;1.00;;
23242;SDS011;11790;49.578;11.214;2023-07-20T14:00:48;1.75;;;1.05;;
23242;SDS011;11790;49.578;11.214;2023-07-20T14:05:48;1.67;;;0.90;;
23242;SDS011;11790;49.578;11.214;2023-07-20T14:10:49;1.52;;;0.95;;
23242;SDS011;11790;49.578;11.214;2023-07-20T14:15:49;1.90;;;1.20;;
23242;SDS011;11790;49.578;11.214;2023-07-20T14:20:50;2.90;;;1.00;;
23242;SDS011;11790;49.578;11.214;2023-07-20T14:25:50;1.30;;;0.90;;
23242;SDS011;11790;49.578;11.214;2023-07-20T14:30:51;2.67;;;1.02;;
23242;SDS011;11790;49.578;11.214;2023-07-20T14:35:51;1.37;;;0.90;;
23242;SDS011;11790;49.578;11.214;2023-07-20T14:40:51;1.63;;;0.90;;
23242;SDS011;11790;49.578;11.214;2023-07-20T14:45:51;1.40;;;1.00;;
23242;SDS011;11790;49.578;11.214;2023-07-20T14:50:52;1.65;;;0.90;;
23242;SDS011;11790;49.578;11.214;2023-07-20T14:55:52;1.30;;;1.02;;
23242;SDS011;11790;49.578;11.214;2023-07-20T15:00:52;1.73;;;1.10;;
23242;SDS011;11790;49.578;11.214;2023-07-20T15:05:52;2.00;;;1.10;;
23242;SDS011;11790;49.578;11.214;2023-07-20T15:10:52;2.97;;;1.10;;
23242;SDS011;11790;49.578;11.214;2023-07-20T15:15:52;1.48;;;0.82;;
23242;SDS011;11790;49.578;11.214;2023-07-20T15:20:53;2.17;;;1.08;;
23242;SDS011;11790;49.578;11.214;2023-07-20T15:25:56;1.00;;;0.90;;
23242;SDS011;11790;49.578;11.214;2023-07-20T15:31:00;2.22;;;1.30;;
23242;SDS011;11790;49.578;11.214;2023-07-20T15:36:01;1.90;;;1.27;;
23242;SDS011;11790;49.578;11.214;2023-07-20T15:41:01;1.60;;;1.00;;
23242;SDS011;11790;49.578;11.214;2023-07-20T15:46:02;1.25;;;1.02;;
23242;SDS011;11790;49.578;11.214;2023-07-20T15:51:07;1.30;;;0.93;;
23242;SDS011;11790;49.578;11.214;2023-07-20T15:56:07;1.95;;;1.20;;
23242;SDS011;11790;49.578;11.214;2023-07-20T16:01:07;1.80;;;1.00;;
23242;SDS011;11790;49.578;11.214;2023-07-20T16:06:08;3.22;;;1.05;;
23242;SDS011;11790;49.578;11.214;2023-07-20T16:11:08;1.38;;;1.00;;
23242;SDS011;11790;49.578;11.214;2023-07-20T16:16:09;2.77;;;0.90;;
23242;SDS011;11790;49.578;11.214;2023-07-20T16:21:10;1.58;;;1.08;;
23242;SDS011;11790;49.578;11.214;2023-07-20T16:26:10;1.57;;;1.00;;
23242;SDS011;11790;49.578;11.214;2023-07-20T16:31:14;3.83;;;1.10;;
23242;SDS011;11790;49.578;11.214;2023-07-20T16:36:15;1.98;;;1.20;;
23242;SDS011;11790;49.578;11.214;2023-07-20T16:41:15;3.13;;;1.00;;
23242;SDS011;11790;49.578;11.214;2023-07-20T16:46:15;1.75;;;1.10;;
23242;SDS011;11790;49.578;11.214;2023-07-20T16:51:15;2.22;;;1.10;;
23242;SDS011;11790;49.578;11.214;2023-07-20T16:56:16;2.10;;;1.10;;
23242;SDS011;11790;49.578;11.214;2023-07-20T17:01:16;2.70;;;1.20;;
23242;SDS011;11790;49.578;11.214;2023-07-20T17:06:16;2.85;;;1.30;;
23242;SDS011;11790;49.578;11.214;2023-07-20T17:11:17;2.38;;;1.17;;
23242;SDS011;11790;49.578;11.214;2023-07-20T17:16:17;3.65;;;1.40;;
23242;SDS011;11790;49.578;11.214;2023-07-20T17:21:17;1.83;;;1.10;;
23242;SDS011;11790;49.578;11.214;2023-07-20T17:26:19;1.88;;;1.00;;
23242;SDS011;11790;49.578;11.214;2023-07-20T17:31:19;2.05;;;1.10;;
23242;SDS011;11790;49.578;11.214;2023-07-20T17:36:20;1.42;;;1.00;;
23242;SDS011;11790;49.578;11.214;2023-07-20T17:41:21;1.92;;;1.08;;
23242;SDS011;11790;49.578;11.214;2023-07-20T17:46:21;2.60;;;1.10;;
23242;SDS011;11790;49.578;11.214;2023-07-20T17:51:22;2.45;;;1.00;;
23242;SDS011;11790;49.578;11.214;2023-07-20T17:56:22;1.73;;;1.10;;
23242;SDS011;11790;49.578;11.214;2023-07-20T18:01:22;1.92;;;0.98;;
23242;SDS011;11790;49.578;11.214;2023-07-20T18:06:22;3.83;;;1.10;;
23242;SDS011;11790;49.578;11.214;2023-07-20T18:11:23;1.27;;;1.05;;
23242;SDS011;11790;49.578;11.214;2023-07-20T18:16:23;1.30;;;0.90;;
23242;SDS011;11790;49.578;11.214;2023-07-20T18:21:25;2.10;;;1.20;;
23242;SDS011;11790;49.578;11.214;2023-07-20T18:26:25;3.25;;;1.35;;
23242;SDS011;11790;49.578;11.214;2023-07-20T18:31:25;6.30;;;4.65;;
23242;SDS011;11790;49.578;11.214;2023-07-20T18:36:25;2.95;;;2.03;;
23242;SDS011;11790;49.578;11.214;2023-07-20T18:41:26;2.88;;;1.98;;
23242;SDS011;11790;49.578;11.214;2023-07-20T18:46:26;2.33;;;2.03;;
23242;SDS011;11790;49.578;11.214;2023-07-20T18:51:27;2.10;;;1.40;;
23242;SDS011;11790;49.578;11.214;2023-07-20T18:56:28;5.68;;;1.58;;
23242;SDS011;11790;49.578;11.214;2023-07-20T19:01:28;2.10;;;1.48;;
23242;SDS011;11790;49.578;11.214;2023-07-20T19:06:28;2.72;;;1.70;;
23242;SDS011;11790;49.578;11.214;2023-07-20T19:11:28;2.28;;;1.50;;
23242;SDS011;11790;49.578;11.214;2023-07-20T19:16:28;2.42;;;1.42;;
23242;SDS011;11790;49.578;11.214;2023-07-20T19:21:29;5.30;;;2.45;;
23242;SDS011;11790;49.578;11.214;2023-07-20T19:26:29;3.55;;;2.35;;
23242;SDS011;11790;49.578;11.214;2023-07-20T19:31:29;6.28;;;3.15;;
23242;SDS011;11790;49.578;11.214;2023-07-20T19:36:29;4.10;;;2.22;;
23242;SDS011;11790;49.578;11.214;2023-07-20T19:41:30;5.90;;;1.52;;
23242;SDS011;11790;49.578;11.214;2023-07-20T19:46:30;3.57;;;1.70;;
23242;SDS011;11790;49.578;11.214;2023-07-20T19:51:30;3.03;;;1.27;;
23242;SDS011;11790;49.578;11.214;2023-07-20T19:56:30;6.13;;;3.08;;
23242;SDS011;11790;49.578;11.214;2023-07-20T20:01:31;4.97;;;2.65;;
23242;SDS011;11790;49.578;11.214;2023-07-20T20:06:31;7.43;;;3.10;;
23242;SDS011;11790;49.578;11.214;2023-07-20T20:11:31;8.90;;;2.70;;
23242;SDS011;11790;49.578;11.214;2023-07-20T20:16:31;4.97;;;2.22;;
23242;SDS011;11790;49.578;11.214;2023-07-20T20:21:32;4.32;;;1.70;;
23242;SDS011;11790;49.578;11.214;2023-07-20T20:26:35;3.10;;;1.73;;
23242;SDS011;11790;49.578;11.214;2023-07-20T20:31:37;7.50;;;2.00;;
23242;SDS011;11790;49.578;11.214;2023-07-20T20:36:38;15.30;;;2.22;;
23242;SDS011;11790;49.578;11.214;2023-07-20T20:41:40;3.72;;;1.58;;
23242;SDS011;11790;49.578;11.214;2023-07-20T20:46:48;7.28;;;2.20;;
23242;SDS011;11790;49.578;11.214;2023-07-20T20:51:48;8.13;;;1.60;;
23242;SDS011;11790;49.578;11.214;2023-07-20T20:56:49;3.58;;;1.75;;
23242;SDS011;11790;49.578;11.214;2023-07-20T21:01:49;4.30;;;1.63;;
23242;SDS011;11790;49.578;11.214;2023-07-20T21:06:50;4.32;;;1.90;;
23242;SDS011;11790;49.578;11.214;2023-07-20T21:11:50;3.00;;;1.88;;
23242;SDS011;11790;49.578;11.214;2023-07-20T21:16:50;2.30;;;1.83;;
23242;SDS011;11790;49.578;11.214;2023-07-20T21:21:51;3.67;;;1.80;;
23242;SDS011;11790;49.578;11.214;2023-07-20T21:26:51;3.50;;;1.83;;
23242;SDS011;11790;49.578;11.214;2023-07-20T21:31:51;2.47;;;1.83;;
23242;SDS011;11790;49.578;11.214;2023-07-20T21:36:51;2.30;;;1.50;;
23242;SDS011;11790;49.578;11.214;2023-07-20T21:41:52;2.00;;;1.55;;
23242;SDS011;11790;49.578;11.214;2023-07-20T21:46:52;1.60;;;1.33;;
23242;SDS011;11790;49.578;11.214;2023-07-20T21:51:52;1.75;;;1.60;;
23242;SDS011;11790;49.578;11.214;2023-07-20T21:56:53;3.00;;;1.70;;
23242;SDS011;11790;49.578;11.214;2023-07-20T22:01:53;2.50;;;2.00;;
23242;SDS011;11790;49.578;11.214;2023-07-20T22:06:53;2.63;;;1.67;;
23242;SDS011;11790;49.578;11.214;2023-07-20T22:11:54;2.05;;;1.73;;
23242;SDS011;11790;49.578;11.214;2023-07-20T22:16:54;4.13;;;1.73;;
23242;SDS011;11790;49.578;11.214;2023-07-20T22:21:54;2.35;;;1.95;;
23242;SDS011;11790;49.578;11.214;2023-07-20T22:26:55;2.33;;;1.58;;
23242;SDS011;11790;49.578;11.214;2023-07-20T22:31:55;10.88;;;2.10;;
23242;SDS011;11790;49.578;11.214;2023-07-20T22:36:56;2.50;;;1.60;;
23242;SDS011;11790;49.578;11.214;2023-07-20T22:41:57;3.85;;;1.67;;
23242;SDS011;11790;49.578;11.214;2023-07-20T22:46:58;3.43;;;1.80;;
23242;SDS011;11790;49.578;11.214;2023-07-20T22:52:03;2.83;;;1.63;;
23242;SDS011;11790;49.578;11.214;2023-07-20T22:57:04;3.07;;;1.60;;
23242;SDS011;11790;49.578;11.214;2023-07-20T23:02:05;2.25;;;1.73;;
23242;SDS011;11790;49.578;11.214;2023-07-20T23:07:06;3.00;;;1.77;;
23242;SDS011;11790;49.578;11.214;2023-07-20T23:12:06;3.03;;;1.88;;
23242;SDS011;11790;49.578;11.214;2023-07-20T23:17:06;3.80;;;2.05;;
23242;SDS011;11790;49.578;11.214;2023-07-20T23:22:10;2.95;;;1.70;;
23242;SDS011;11790;49.578;11.214;2023-07-20T23:27:10;3.20;;;1.77;;
23242;SDS011;11790;49.578;11.214;2023-07-20T23:32:11;2.95;;;1.73;;
23242;SDS011;11790;49.578;11.214;2023-07-20T23:37:11;2.10;;;1.77;;
23242;SDS011;11790;49.578;11.214;2023-07-20T23:42:11;2.78;;;2.00;;
23242;SDS011;11790;49.578;11.214;2023-07-20T23:47:13;3.08;;;1.90;;
23242;SDS011;11790;49.578;11.214;2023-07-20T23:52:14;2.47;;;1.70;;
23242;SDS011;11790;49.578;11.214;2023-07-20T23:57:18;2.78;;;1.70;;
